Time;durP1;ratioP1;P1;durP2;ratioP2;P2;SDS_P1;SDS_P2;PMS_P1;PMS_P2;Temp;Humidity;BMP_temperature;BMP_pressure;BME280_temperature;BME280_humidity;BME280_pressure;Samples;Min_cycle;Max_cycle;Signal;HPM_P1;HPM_P2
2022/03/07 00:01:30;;;;;;;50.75;25.30;;;;;;;;;;5105398;28;20260;-61
2022/03/07 00:03:55;;;;;;;56.83;25.27;;;;;;;;;;5103334;28;20312;-60
2022/03/07 00:06:21;;;;;;;55.00;24.73;;;;;;;;;;5101222;28;20241;-61
2022/03/07 00:08:46;;;;;;;50.55;24.30;;;;;;;;;;5088553;28;20875;-60
2022/03/07 00:11:12;;;;;;;50.55;25.20;;;;;;;;;;5078541;28;20184;-61
2022/03/07 00:13:37;;;;;;;48.65;24.60;;;;;;;;;;5099679;28;20353;-60
2022/03/07 00:16:03;;;;;;;51.90;24.45;;;;;;;;;;5095516;28;20168;-61
2022/03/07 00:18:28;;;;;;;53.15;25.20;;;;;;;;;;5102367;28;20183;-60
2022/03/07 00:20:55;;;;;;;55.67;25.63;;;;;;;;;;5100082;28;20179;-61
2022/03/07 00:23:21;;;;;;;53.05;24.10;;;;;;;;;;5103236;28;20194;-60
2022/03/07 00:25:46;;;;;;;50.45;23.98;;;;;;;;;;5099707;28;20173;-60
2022/03/07 00:28:11;;;;;;;50.58;24.90;;;;;;;;;;5101543;28;20190;-60
2022/03/07 00:30:37;;;;;;;52.17;26.63;;;;;;;;;;5086751;28;20200;-61
2022/03/07 00:33:02;;;;;;;64.85;28.73;;;;;;;;;;5098387;28;20199;-60
2022/03/07 00:35:27;;;;;;;60.63;26.92;;;;;;;;;;5100811;28;20176;-60
2022/03/07 00:37:53;;;;;;;56.55;27.40;;;;;;;;;;5095138;28;20169;-60
2022/03/07 00:40:18;;;;;;;59.90;29.02;;;;;;;;;;5099022;28;20278;-61
2022/03/07 00:42:43;;;;;;;58.05;28.73;;;;;;;;;;5102447;28;20182;-60
2022/03/07 00:45:10;;;;;;;59.70;27.85;;;;;;;;;;5096869;28;20639;-60
2022/03/07 00:47:35;;;;;;;66.45;27.63;;;;;;;;;;5096386;28;20704;-61
2022/03/07 00:50:01;;;;;;;54.83;26.27;;;;;;;;;;5095423;28;20296;-61
2022/03/07 00:52:26;;;;;;;46.30;23.73;;;;;;;;;;5078244;28;20234;-60
2022/03/07 00:54:52;;;;;;;48.58;24.23;;;;;;;;;;5078507;28;20245;-60
2022/03/07 00:57:17;;;;;;;43.40;23.40;;;;;;;;;;5086790;28;20629;-60
2022/03/07 00:59:42;;;;;;;44.40;21.77;;;;;;;;;;5088882;28;20176;-60
2022/03/07 01:02:08;;;;;;;44.13;22.17;;;;;;;;;;5100086;28;20641;-61
2022/03/07 01:04:33;;;;;;;50.78;23.33;;;;;;;;;;5099187;28;20192;-60
2022/03/07 01:06:58;;;;;;;45.00;22.70;;;;;;;;;;5094931;28;20195;-60
2022/03/07 01:09:23;;;;;;;41.60;22.23;;;;;;;;;;5099451;28;20596;-61
2022/03/07 01:11:49;;;;;;;45.40;22.80;;;;;;;;;;5093860;28;20722;-60
2022/03/07 01:14:14;;;;;;;39.80;21.10;;;;;;;;;;5097159;28;20221;-60
2022/03/07 01:16:39;;;;;;;39.88;21.63;;;;;;;;;;5098947;28;20255;-60
2022/03/07 01:19:05;;;;;;;35.08;19.52;;;;;;;;;;5104534;28;20175;-60
2022/03/07 01:21:30;;;;;;;36.13;18.88;;;;;;;;;;5092627;28;20183;-60
2022/03/07 01:23:55;;;;;;;37.30;20.00;;;;;;;;;;5099917;27;20187;-60
2022/03/07 01:26:21;;;;;;;33.78;18.88;;;;;;;;;;5103102;28;20195;-60
2022/03/07 01:28:46;;;;;;;36.67;19.25;;;;;;;;;;5098162;28;20229;-60
2022/03/07 01:31:11;;;;;;;34.22;18.23;;;;;;;;;;5098100;28;20539;-60
2022/03/07 01:33:36;;;;;;;31.75;18.02;;;;;;;;;;5084643;28;20216;-60
2022/03/07 01:36:02;;;;;;;30.95;17.25;;;;;;;;;;5077337;28;20184;-60
2022/03/07 01:38:27;;;;;;;31.50;17.48;;;;;;;;;;5077658;28;20227;-60
2022/03/07 01:40:53;;;;;;;27.00;14.98;;;;;;;;;;5090868;28;20187;-60
2022/03/07 01:43:18;;;;;;;23.02;13.70;;;;;;;;;;5103469;28;20604;-61
2022/03/07 01:45:43;;;;;;;18.08;12.48;;;;;;;;;;5104060;28;20190;-60
2022/03/07 01:48:09;;;;;;;19.65;12.75;;;;;;;;;;5093206;28;20180;-60
2022/03/07 01:50:35;;;;;;;17.45;11.15;;;;;;;;;;5098015;28;21007;-60
2022/03/07 01:53:00;;;;;;;15.52;10.00;;;;;;;;;;5092715;28;20208;-60
2022/03/07 01:55:25;;;;;;;15.32;10.85;;;;;;;;;;5079393;28;20653;-60
2022/03/07 01:57:51;;;;;;;17.90;11.13;;;;;;;;;;5077504;28;20744;-60
2022/03/07 02:00:26;;;;;;;19.98;12.32;;;;;;;;;;5100568;28;20290;-60
2022/03/07 02:02:53;;;;;;;20.17;12.40;;;;;;;;;;5093464;28;20287;-60
2022/03/07 02:05:19;;;;;;;18.05;10.65;;;;;;;;;;5088046;28;20180;-60
2022/03/07 02:07:44;;;;;;;24.13;13.70;;;;;;;;;;5095955;28;20184;-60
2022/03/07 02:10:10;;;;;;;21.60;13.02;;;;;;;;;;5102305;28;20183;-60
2022/03/07 02:12:36;;;;;;;24.08;13.45;;;;;;;;;;5088729;28;20200;-60
2022/03/07 02:15:01;;;;;;;17.75;12.02;;;;;;;;;;5097134;28;20178;-60
2022/03/07 02:17:26;;;;;;;21.42;12.77;;;;;;;;;;5095539;28;20183;-60
2022/03/07 02:19:52;;;;;;;20.67;12.00;;;;;;;;;;5097656;28;20179;-60
2022/03/07 02:22:17;;;;;;;22.23;13.70;;;;;;;;;;5100901;28;20180;-60
2022/03/07 02:24:43;;;;;;;21.50;13.00;;;;;;;;;;5101178;28;20186;-60
2022/03/07 02:27:09;;;;;;;19.92;11.70;;;;;;;;;;5095703;28;20192;-60
2022/03/07 02:29:35;;;;;;;23.15;12.90;;;;;;;;;;5093556;28;20564;-60
2022/03/07 02:32:00;;;;;;;23.00;13.75;;;;;;;;;;5097010;28;20188;-60
2022/03/07 02:34:26;;;;;;;26.45;14.93;;;;;;;;;;5091008;28;20637;-60
2022/03/07 02:36:51;;;;;;;21.17;13.32;;;;;;;;;;5087832;28;20187;-61
2022/03/07 02:39:17;;;;;;;23.40;14.10;;;;;;;;;;5076168;28;20177;-60
2022/03/07 02:41:42;;;;;;;26.08;14.43;;;;;;;;;;5096520;28;20206;-60
2022/03/07 02:44:08;;;;;;;21.67;13.88;;;;;;;;;;5090044;28;20180;-60
2022/03/07 02:46:34;;;;;;;21.85;13.43;;;;;;;;;;5091715;28;20184;-60
2022/03/07 02:48:59;;;;;;;21.15;13.98;;;;;;;;;;5095075;28;20224;-60
2022/03/07 02:51:24;;;;;;;22.30;13.45;;;;;;;;;;5100280;28;20187;-61
2022/03/07 02:53:50;;;;;;;22.83;14.25;;;;;;;;;;5095476;28;20590;-61
2022/03/07 02:56:16;;;;;;;26.40;14.95;;;;;;;;;;5094603;28;20209;-60
2022/03/07 02:58:41;;;;;;;34.03;17.40;;;;;;;;;;5097041;28;20203;-60
2022/03/07 03:01:07;;;;;;;27.73;15.05;;;;;;;;;;5095560;28;20916;-60
2022/03/07 03:03:32;;;;;;;34.20;19.13;;;;;;;;;;5099198;28;20998;-60
2022/03/07 03:05:58;;;;;;;38.90;19.73;;;;;;;;;;5101770;28;20180;-61
2022/03/07 03:08:23;;;;;;;33.35;18.63;;;;;;;;;;5091644;28;20276;-60
2022/03/07 03:10:49;;;;;;;29.67;17.10;;;;;;;;;;5101751;28;20557;-60
2022/03/07 03:13:17;;;;;;;26.48;16.13;;;;;;;;;;5099701;28;20345;-61
2022/03/07 03:15:42;;;;;;;35.65;18.52;;;;;;;;;;5096762;28;21217;-61
2022/03/07 03:18:07;;;;;;;28.80;17.95;;;;;;;;;;5093973;28;20267;-60
2022/03/07 03:20:33;;;;;;;27.35;16.35;;;;;;;;;;5078933;28;20239;-60
2022/03/07 03:22:58;;;;;;;31.00;16.55;;;;;;;;;;5080735;28;20183;-60
2022/03/07 03:25:23;;;;;;;37.30;21.38;;;;;;;;;;5097074;28;20183;-60
2022/03/07 03:27:49;;;;;;;44.22;22.80;;;;;;;;;;5100596;28;20267;-60
2022/03/07 03:30:14;;;;;;;45.53;22.33;;;;;;;;;;5092776;28;20296;-60
2022/03/07 03:32:40;;;;;;;50.13;25.30;;;;;;;;;;5093688;28;20392;-60
2022/03/07 03:35:05;;;;;;;50.88;25.23;;;;;;;;;;5098791;28;20177;-60
2022/03/07 03:37:30;;;;;;;49.92;23.60;;;;;;;;;;5094093;28;20198;-60
2022/03/07 03:39:56;;;;;;;43.95;24.23;;;;;;;;;;5091741;28;20223;-61
2022/03/07 03:42:21;;;;;;;48.75;22.45;;;;;;;;;;5079337;28;20267;-60
2022/03/07 03:44:47;;;;;;;45.17;23.50;;;;;;;;;;5080871;28;20184;-60
2022/03/07 03:47:12;;;;;;;42.88;23.38;;;;;;;;;;5097532;28;20184;-61
2022/03/07 03:49:38;;;;;;;41.60;22.63;;;;;;;;;;5105085;28;20741;-60
2022/03/07 03:52:03;;;;;;;42.17;21.98;;;;;;;;;;5098245;28;20176;-60
2022/03/07 03:54:28;;;;;;;43.65;22.70;;;;;;;;;;5103093;28;20730;-60
2022/03/07 03:56:54;;;;;;;40.60;21.67;;;;;;;;;;5098412;28;20206;-61
2022/03/07 03:59:19;;;;;;;37.58;21.30;;;;;;;;;;5104116;28;20180;-60
2022/03/07 04:01:45;;;;;;;35.63;20.42;;;;;;;;;;5081768;28;20943;-60
2022/03/07 04:04:11;;;;;;;34.88;19.17;;;;;;;;;;5079449;28;20217;-60
2022/03/07 04:06:36;;;;;;;30.02;17.67;;;;;;;;;;5082958;28;20290;-60
2022/03/07 04:09:04;;;;;;;29.30;17.63;;;;;;;;;;5105105;28;20320;-60
2022/03/07 04:11:30;;;;;;;23.90;14.68;;;;;;;;;;5101026;28;20578;-60
2022/03/07 04:13:55;;;;;;;17.88;11.38;;;;;;;;;;5100222;28;20192;-61
2022/03/07 04:16:20;;;;;;;15.40;10.52;;;;;;;;;;5100891;28;20312;-60
2022/03/07 04:18:46;;;;;;;15.77;8.80;;;;;;;;;;5101167;28;20267;-60
2022/03/07 04:21:11;;;;;;;15.10;9.35;;;;;;;;;;5091267;28;20185;-60
2022/03/07 04:23:36;;;;;;;13.40;7.70;;;;;;;;;;5077710;28;20257;-61
2022/03/07 04:26:02;;;;;;;10.45;6.88;;;;;;;;;;5079339;28;20213;-60
2022/03/07 04:28:27;;;;;;;11.25;7.15;;;;;;;;;;5087028;28;20212;-60
2022/03/07 04:30:52;;;;;;;14.63;8.70;;;;;;;;;;5103781;28;20184;-61
2022/03/07 04:33:18;;;;;;;13.77;8.52;;;;;;;;;;5101898;28;20207;-60
2022/03/07 04:35:43;;;;;;;10.07;7.07;;;;;;;;;;5099682;28;20706;-60
2022/03/07 04:38:08;;;;;;;11.23;6.93;;;;;;;;;;5104842;28;20729;-60
2022/03/07 04:40:33;;;;;;;8.70;5.70;;;;;;;;;;5099207;28;20227;-60
2022/03/07 04:43:01;;;;;;;8.82;6.50;;;;;;;;;;5088004;28;20208;-60
2022/03/07 04:45:26;;;;;;;12.55;7.90;;;;;;;;;;5097732;28;20178;-60
2022/03/07 04:47:51;;;;;;;11.32;7.30;;;;;;;;;;5099792;28;20176;-60
2022/03/07 04:50:17;;;;;;;8.20;5.90;;;;;;;;;;5103022;28;20223;-60
2022/03/07 04:52:42;;;;;;;11.73;7.25;;;;;;;;;;5095885;28;20192;-60
2022/03/07 04:55:11;;;;;;;12.15;7.30;;;;;;;;;;5098293;28;20263;-60
2022/03/07 04:57:37;;;;;;;11.20;7.78;;;;;;;;;;5098127;28;20211;-62
2022/03/07 05:00:05;;;;;;;15.00;8.00;;;;;;;;;;5096077;28;20202;-60
2022/03/07 05:02:31;;;;;;;13.88;8.25;;;;;;;;;;5100289;28;20554;-60
2022/03/07 05:04:56;;;;;;;16.38;10.35;;;;;;;;;;5081012;28;20655;-62
2022/03/07 05:07:21;;;;;;;17.13;10.27;;;;;;;;;;5077966;28;20184;-61
2022/03/07 05:09:47;;;;;;;16.23;10.15;;;;;;;;;;5084023;28;20645;-61
2022/03/07 05:12:12;;;;;;;17.88;12.70;;;;;;;;;;5100039;28;20721;-60
2022/03/07 05:14:37;;;;;;;22.13;13.73;;;;;;;;;;5088288;28;20180;-61
2022/03/07 05:17:03;;;;;;;24.48;13.23;;;;;;;;;;5098224;28;20259;-61
2022/03/07 05:19:28;;;;;;;20.92;13.85;;;;;;;;;;5098098;28;20185;-61
2022/03/07 05:21:53;;;;;;;24.90;16.88;;;;;;;;;;5097266;28;20228;-60
2022/03/07 05:24:18;;;;;;;34.13;20.55;;;;;;;;;;5104457;28;20180;-61
2022/03/07 05:26:44;;;;;;;36.78;21.58;;;;;;;;;;5096590;28;20847;-60
2022/03/07 05:29:09;;;;;;;38.17;22.73;;;;;;;;;;5098386;28;20175;-60
2022/03/07 05:31:34;;;;;;;36.80;21.90;;;;;;;;;;5103593;28;20207;-60
2022/03/07 05:34:00;;;;;;;34.38;21.92;;;;;;;;;;5095812;28;20199;-61
2022/03/07 05:36:25;;;;;;;33.15;20.38;;;;;;;;;;5095681;28;20267;-61
2022/03/07 05:38:50;;;;;;;36.78;21.30;;;;;;;;;;5099636;27;20236;-60
2022/03/07 05:41:16;;;;;;;36.38;21.05;;;;;;;;;;5092986;28;20703;-60
2022/03/07 05:43:41;;;;;;;32.40;19.92;;;;;;;;;;5096229;28;20191;-60
2022/03/07 05:46:07;;;;;;;40.50;25.02;;;;;;;;;;5100943;28;20254;-60
2022/03/07 05:48:32;;;;;;;47.75;29.52;;;;;;;;;;5096938;28;20708;-60
2022/03/07 05:50:57;;;;;;;50.67;28.23;;;;;;;;;;5098649;28;20191;-61
2022/03/07 05:53:23;;;;;;;43.90;27.58;;;;;;;;;;5097011;28;20192;-60
2022/03/07 05:55:49;;;;;;;60.63;31.52;;;;;;;;;;5095791;28;20729;-60
2022/03/07 05:58:14;;;;;;;47.30;26.00;;;;;;;;;;5096426;28;20657;-60
2022/03/07 06:00:39;;;;;;;46.95;26.60;;;;;;;;;;5095117;28;20175;-60
2022/03/07 06:03:05;;;;;;;48.17;25.73;;;;;;;;;;5094168;28;20271;-60
2022/03/07 06:05:31;;;;;;;54.17;28.90;;;;;;;;;;5096883;28;20613;-60
2022/03/07 06:07:56;;;;;;;54.97;30.38;;;;;;;;;;5079951;28;20248;-61
2022/03/07 06:10:22;;;;;;;59.58;33.17;;;;;;;;;;5076940;28;20192;-60
2022/03/07 06:12:47;;;;;;;55.22;32.80;;;;;;;;;;5079706;28;20220;-61
2022/03/07 06:15:13;;;;;;;60.95;34.47;;;;;;;;;;5100113;28;20180;-60
2022/03/07 06:17:47;;;;;;;59.03;33.55;;;;;;;;;;5093537;28;20750;-61
2022/03/07 06:20:13;;;;;;;55.08;32.50;;;;;;;;;;5100986;28;20612;-62
2022/03/07 06:22:38;;;;;;;55.13;28.88;;;;;;;;;;5099419;28;20195;-61
2022/03/07 06:25:03;;;;;;;60.20;30.20;;;;;;;;;;5096321;28;20176;-61
2022/03/07 06:27:29;;;;;;;58.67;28.05;;;;;;;;;;5101002;28;20273;-62
2022/03/07 06:29:54;;;;;;;57.78;26.20;;;;;;;;;;5096133;28;20179;-62
2022/03/07 06:32:23;;;;;;;48.95;22.45;;;;;;;;;;5097382;28;20295;-61
2022/03/07 06:34:48;;;;;;;43.78;21.20;;;;;;;;;;5097847;28;20232;-60
2022/03/07 06:37:14;;;;;;;34.75;19.90;;;;;;;;;;5100375;28;20186;-60
2022/03/07 06:39:39;;;;;;;45.50;24.27;;;;;;;;;;5096682;28;20192;-60
2022/03/07 06:42:04;;;;;;;53.42;28.80;;;;;;;;;;5104546;28;20263;-60
2022/03/07 06:44:30;;;;;;;49.92;23.63;;;;;;;;;;5093261;28;20240;-60
2022/03/07 06:46:55;;;;;;;42.05;23.30;;;;;;;;;;5092714;28;20184;-60
2022/03/07 06:49:20;;;;;;;40.75;20.67;;;;;;;;;;5084505;28;20204;-60
2022/03/07 06:51:45;;;;;;;38.72;19.63;;;;;;;;;;5080063;28;20255;-60
2022/03/07 06:54:11;;;;;;;40.10;21.10;;;;;;;;;;5081629;28;20693;-60
2022/03/07 06:56:36;;;;;;;40.22;21.02;;;;;;;;;;5096187;28;20669;-60
2022/03/07 06:59:01;;;;;;;47.65;24.05;;;;;;;;;;5104580;28;20179;-60
2022/03/07 07:01:27;;;;;;;46.05;22.92;;;;;;;;;;5098723;28;20617;-60
2022/03/07 07:03:52;;;;;;;45.70;21.95;;;;;;;;;;5107490;28;20176;-60
2022/03/07 07:06:17;;;;;;;39.83;22.25;;;;;;;;;;5102737;28;20594;-60
2022/03/07 07:08:43;;;;;;;48.33;23.63;;;;;;;;;;5100207;28;20186;-60
2022/03/07 07:11:08;;;;;;;44.00;21.38;;;;;;;;;;5098720;28;20259;-61
2022/03/07 07:13:33;;;;;;;45.63;23.58;;;;;;;;;;5100356;28;20195;-60
2022/03/07 07:15:58;;;;;;;46.38;23.98;;;;;;;;;;5103288;28;20248;-61
2022/03/07 07:18:24;;;;;;;67.70;29.88;;;;;;;;;;5108980;28;20550;-60
2022/03/07 07:20:50;;;;;;;67.45;31.20;;;;;;;;;;5107814;28;20262;-60
2022/03/07 07:23:17;;;;;;;65.75;32.90;;;;;;;;;;5098703;28;20184;-60
2022/03/07 07:25:42;;;;;;;69.32;31.35;;;;;;;;;;5093674;28;21019;-61
2022/03/07 07:28:07;;;;;;;64.03;30.77;;;;;;;;;;5098353;28;20196;-61
2022/03/07 07:30:33;;;;;;;77.03;35.08;;;;;;;;;;5092642;28;20180;-60
2022/03/07 07:32:58;;;;;;;76.68;34.58;;;;;;;;;;5079393;28;20207;-60
2022/03/07 07:35:23;;;;;;;62.55;30.77;;;;;;;;;;5078904;28;20237;-61
2022/03/07 07:37:48;;;;;;;55.38;28.92;;;;;;;;;;5087546;28;20688;-61
2022/03/07 07:40:14;;;;;;;53.05;30.27;;;;;;;;;;5106628;28;20208;-61
2022/03/07 07:42:40;;;;;;;44.22;24.50;;;;;;;;;;5099187;28;20181;-60
2022/03/07 07:45:05;;;;;;;40.53;22.13;;;;;;;;;;5104227;28;20181;-61
2022/03/07 07:47:30;;;;;;;40.05;23.23;;;;;;;;;;5095134;28;20195;-60
2022/03/07 07:49:56;;;;;;;38.78;21.48;;;;;;;;;;5093577;28;20204;-60
2022/03/07 07:52:21;;;;;;;39.28;20.73;;;;;;;;;;5094439;28;20699;-60
2022/03/07 07:54:46;;;;;;;44.70;24.80;;;;;;;;;;5097424;28;20212;-59
2022/03/07 07:57:12;;;;;;;31.13;19.55;;;;;;;;;;5080646;28;20178;-60
2022/03/07 07:59:37;;;;;;;37.63;20.15;;;;;;;;;;5098893;28;20286;-60
2022/03/07 08:02:03;;;;;;;35.20;18.38;;;;;;;;;;5106590;28;20233;-60
2022/03/07 08:04:28;;;;;;;27.65;16.23;;;;;;;;;;5102743;28;20172;-60
2022/03/07 08:06:53;;;;;;;27.48;16.88;;;;;;;;;;5097548;28;20180;-60
2022/03/07 08:09:19;;;;;;;34.67;18.50;;;;;;;;;;5095012;28;20184;-60
2022/03/07 08:11:44;;;;;;;27.73;16.48;;;;;;;;;;5100387;28;20671;-60
2022/03/07 08:14:09;;;;;;;40.40;21.80;;;;;;;;;;5088535;27;20215;-60
2022/03/07 08:16:35;;;;;;;42.58;22.95;;;;;;;;;;5079318;28;20180;-60
2022/03/07 08:19:00;;;;;;;36.58;20.77;;;;;;;;;;5081470;28;20729;-60
2022/03/07 08:21:25;;;;;;;37.03;20.77;;;;;;;;;;5105299;28;20290;-60
2022/03/07 08:23:54;;;;;;;30.55;16.77;;;;;;;;;;5103059;28;20252;-60
2022/03/07 08:26:19;;;;;;;34.63;18.05;;;;;;;;;;5097248;28;20613;-60
2022/03/07 08:28:45;;;;;;;33.75;18.35;;;;;;;;;;5107864;28;20207;-59
2022/03/07 08:31:10;;;;;;;33.40;17.90;;;;;;;;;;5106894;28;20176;-60
2022/03/07 08:33:36;;;;;;;34.38;19.05;;;;;;;;;;5100755;28;20274;-60
2022/03/07 08:36:01;;;;;;;34.65;19.27;;;;;;;;;;5080807;28;20184;-60
2022/03/07 08:38:27;;;;;;;34.85;18.00;;;;;;;;;;5079295;28;20711;-60
2022/03/07 08:40:53;;;;;;;32.33;15.65;;;;;;;;;;5085301;28;20223;-60
2022/03/07 08:43:19;;;;;;;27.13;15.85;;;;;;;;;;5092276;28;20246;-60
2022/03/07 08:45:44;;;;;;;28.63;15.25;;;;;;;;;;5100015;28;20222;-60
2022/03/07 08:48:09;;;;;;;29.48;16.27;;;;;;;;;;5100085;28;20241;-60
2022/03/07 08:50:35;;;;;;;24.27;13.40;;;;;;;;;;5099152;28;20200;-60
2022/03/07 08:53:00;;;;;;;25.50;15.60;;;;;;;;;;5100820;28;20213;-60
2022/03/07 08:55:25;;;;;;;25.88;14.38;;;;;;;;;;5105181;28;20308;-59
2022/03/07 08:57:51;;;;;;;26.75;14.93;;;;;;;;;;5097785;28;20179;-60
2022/03/07 09:00:16;;;;;;;29.52;17.30;;;;;;;;;;5098130;28;20224;-60
2022/03/07 09:02:41;;;;;;;26.92;15.13;;;;;;;;;;5104069;28;20223;-60
2022/03/07 09:05:08;;;;;;;31.23;18.23;;;;;;;;;;5103989;28;20187;-60
2022/03/07 09:07:33;;;;;;;41.28;20.55;;;;;;;;;;5095588;28;20184;-60
2022/03/07 09:09:58;;;;;;;28.80;15.63;;;;;;;;;;5099252;28;20586;-59
2022/03/07 09:12:27;;;;;;;16.50;9.48;;;;;;;;;;5104689;27;21044;-59
2022/03/07 09:14:54;;;;;;;16.02;9.27;;;;;;;;;;5105986;28;20808;-60
2022/03/07 09:17:19;;;;;;;19.13;11.13;;;;;;;;;;5096356;28;20180;-60
2022/03/07 09:19:45;;;;;;;18.20;11.25;;;;;;;;;;5096774;28;20187;-60
2022/03/07 09:22:10;;;;;;;19.02;10.20;;;;;;;;;;5098505;28;20267;-60
2022/03/07 09:24:35;;;;;;;18.02;11.35;;;;;;;;;;5098850;28;20199;-60
2022/03/07 09:27:00;;;;;;;17.65;10.45;;;;;;;;;;5094735;28;20369;-60
2022/03/07 09:29:26;;;;;;;16.00;9.75;;;;;;;;;;5096421;28;20216;-60
2022/03/07 09:31:51;;;;;;;19.15;10.43;;;;;;;;;;5103990;28;20211;-60
2022/03/07 09:34:16;;;;;;;17.88;10.07;;;;;;;;;;5095853;28;20210;-60
2022/03/07 09:36:42;;;;;;;17.05;10.65;;;;;;;;;;5101028;28;20263;-60
2022/03/07 09:39:07;;;;;;;19.33;10.52;;;;;;;;;;5081352;28;20259;-59
2022/03/07 09:41:33;;;;;;;18.55;10.45;;;;;;;;;;5078348;28;21053;-60
2022/03/07 09:43:58;;;;;;;17.90;10.30;;;;;;;;;;5086488;28;20183;-60
2022/03/07 09:46:23;;;;;;;18.67;10.90;;;;;;;;;;5102552;28;20205;-60
2022/03/07 09:48:49;;;;;;;22.13;12.35;;;;;;;;;;5097152;28;20182;-60
2022/03/07 09:51:14;;;;;;;22.45;12.18;;;;;;;;;;5100675;28;20183;-60
2022/03/07 09:53:39;;;;;;;19.65;10.88;;;;;;;;;;5106203;28;20203;-60
2022/03/07 09:56:05;;;;;;;19.27;11.50;;;;;;;;;;5097328;28;20182;-60
2022/03/07 09:58:31;;;;;;;21.35;11.90;;;;;;;;;;5090179;28;20645;-61
2022/03/07 10:01:13;;;;;;;24.83;13.90;;;;;;;;;;5074593;28;20614;-61
2022/03/07 10:03:39;;;;;;;25.33;15.60;;;;;;;;;;5098409;28;20187;-61
2022/03/07 10:06:15;;;;;;;23.85;13.75;;;;;;;;;;5100641;28;20187;-61
2022/03/07 10:08:50;;;;;;;23.42;14.27;;;;;;;;;;5090840;28;20987;-61
2022/03/07 10:11:15;;;;;;;22.70;12.30;;;;;;;;;;5100376;28;20179;-61
2022/03/07 10:13:48;;;;;;;20.70;12.13;;;;;;;;;;5093921;28;20199;-61
2022/03/07 10:16:13;;;;;;;22.85;13.07;;;;;;;;;;5088410;28;20188;-61
2022/03/07 10:18:47;;;;;;;21.17;11.98;;;;;;;;;;5094038;28;20184;-61
2022/03/07 10:21:20;;;;;;;24.33;13.40;;;;;;;;;;5097848;28;20187;-61
2022/03/07 10:23:49;;;;;;;22.60;12.35;;;;;;;;;;5096835;28;20719;-61
2022/03/07 10:26:15;;;;;;;23.48;13.57;;;;;;;;;;5102442;28;20324;-60
2022/03/07 10:28:41;;;;;;;26.25;13.60;;;;;;;;;;5101521;28;20337;-61
2022/03/07 10:31:16;;;;;;;24.23;13.85;;;;;;;;;;5097943;28;20176;-61
2022/03/07 10:33:42;;;;;;;31.25;18.27;;;;;;;;;;5101339;28;20215;-61
2022/03/07 10:36:07;;;;;;;30.25;15.05;;;;;;;;;;5097024;28;20168;-61
2022/03/07 10:38:33;;;;;;;40.55;20.98;;;;;;;;;;5100560;28;20626;-61
2022/03/07 10:40:58;;;;;;;33.30;17.52;;;;;;;;;;5090535;28;20852;-61
2022/03/07 10:43:24;;;;;;;25.60;14.23;;;;;;;;;;5095364;28;20175;-61
2022/03/07 10:45:50;;;;;;;35.33;20.10;;;;;;;;;;5097943;28;20688;-61
2022/03/07 10:48:16;;;;;;;47.20;23.27;;;;;;;;;;5099788;28;20196;-61
2022/03/07 10:50:52;;;;;;;34.28;19.48;;;;;;;;;;5095513;28;20588;-61
2022/03/07 10:53:18;;;;;;;33.70;20.15;;;;;;;;;;5099882;28;20218;-61
2022/03/07 10:55:54;;;;;;;48.05;29.27;;;;;;;;;;5088402;28;20215;-62
2022/03/07 10:58:20;;;;;;;29.20;17.30;;;;;;;;;;5105007;28;20182;-61
2022/03/07 11:00:53;;;;;;;26.88;15.57;;;;;;;;;;5098582;28;20725;-61
2022/03/07 11:03:22;;;;;;;25.75;14.85;;;;;;;;;;5079287;28;20184;-61
2022/03/07 11:05:48;;;;;;;51.83;27.33;;;;;;;;;;5096820;28;20172;-61
2022/03/07 11:08:15;;;;;;;24.67;15.35;;;;;;;;;;5098644;28;20198;-61
2022/03/07 11:10:52;;;;;;;24.20;13.60;;;;;;;;;;5096521;28;20176;-61
2022/03/07 11:13:18;;;;;;;22.35;13.73;;;;;;;;;;5092479;28;20192;-62
2022/03/07 11:15:44;;;;;;;23.98;13.50;;;;;;;;;;5089075;28;20679;-61
2022/03/07 11:18:11;;;;;;;21.88;12.57;;;;;;;;;;5094688;28;20196;-61
2022/03/07 11:20:39;;;;;;;24.80;13.60;;;;;;;;;;5095859;28;20648;-61
2022/03/07 11:23:04;;;;;;;22.42;13.20;;;;;;;;;;5096274;28;20252;-61
2022/03/07 11:25:30;;;;;;;23.23;13.07;;;;;;;;;;5096130;28;21038;-61
2022/03/07 11:27:55;;;;;;;25.25;15.10;;;;;;;;;;5097537;28;20192;-61
2022/03/07 11:30:21;;;;;;;27.15;16.15;;;;;;;;;;5100163;28;20187;-61
2022/03/07 11:32:50;;;;;;;31.33;17.98;;;;;;;;;;5099711;28;20206;-61
2022/03/07 11:35:16;;;;;;;29.25;18.38;;;;;;;;;;5103155;28;20684;-61
2022/03/07 11:37:41;;;;;;;28.70;15.32;;;;;;;;;;5107187;28;20180;-61
2022/03/07 11:40:23;;;;;;;30.65;17.92;;;;;;;;;;5103324;28;20199;-62
2022/03/07 11:42:49;;;;;;;33.35;18.00;;;;;;;;;;5106080;28;20206;-62
2022/03/07 11:45:18;;;;;;;26.65;16.20;;;;;;;;;;5101371;28;20183;-62
2022/03/07 11:47:44;;;;;;;22.88;14.20;;;;;;;;;;5100241;28;20194;-62
2022/03/07 11:50:09;;;;;;;27.88;16.52;;;;;;;;;;5101468;28;20696;-62
2022/03/07 11:52:35;;;;;;;23.63;13.63;;;;;;;;;;5105143;28;20227;-62
2022/03/07 11:55:02;;;;;;;23.15;13.82;;;;;;;;;;5103526;28;20172;-61
2022/03/07 11:57:35;;;;;;;23.70;13.05;;;;;;;;;;5105657;28;20176;-62
2022/03/07 12:00:12;;;;;;;20.70;13.52;;;;;;;;;;5108119;28;20741;-62
2022/03/07 12:02:39;;;;;;;23.58;13.23;;;;;;;;;;5100259;28;20255;-60
2022/03/07 12:05:04;;;;;;;19.73;12.23;;;;;;;;;;5097696;28;20187;-60
2022/03/07 12:07:30;;;;;;;22.42;13.65;;;;;;;;;;5098626;28;20699;-60
2022/03/07 12:10:04;;;;;;;25.10;15.18;;;;;;;;;;5080269;28;20187;-60
2022/03/07 12:12:30;;;;;;;21.02;13.13;;;;;;;;;;5098446;28;20195;-60
2022/03/07 12:15:06;;;;;;;20.75;12.50;;;;;;;;;;5096571;28;20180;-60
2022/03/07 12:17:31;;;;;;;20.50;12.05;;;;;;;;;;5096244;28;20172;-60
2022/03/07 12:19:57;;;;;;;24.27;14.00;;;;;;;;;;5090065;28;20597;-60
2022/03/07 12:22:23;;;;;;;24.50;14.90;;;;;;;;;;5092836;28;20740;-60
2022/03/07 12:24:49;;;;;;;20.77;13.45;;;;;;;;;;5098201;28;20171;-60
2022/03/07 12:27:14;;;;;;;21.92;13.27;;;;;;;;;;5082079;28;20187;-60
2022/03/07 12:29:40;;;;;;;20.95;13.02;;;;;;;;;;5078980;28;20325;-60
2022/03/07 12:32:06;;;;;;;21.30;12.07;;;;;;;;;;5102493;28;20565;-60
2022/03/07 12:34:35;;;;;;;21.42;12.93;;;;;;;;;;5105404;28;20719;-60
2022/03/07 12:37:11;;;;;;;23.13;13.77;;;;;;;;;;5093348;28;20183;-60
2022/03/07 12:39:44;;;;;;;18.88;12.05;;;;;;;;;;5094072;28;20192;-60
2022/03/07 12:42:10;;;;;;;19.67;11.63;;;;;;;;;;5105662;28;20187;-60
2022/03/07 12:44:37;;;;;;;19.90;12.00;;;;;;;;;;5103045;28;20172;-60
2022/03/07 12:47:02;;;;;;;23.45;12.48;;;;;;;;;;5092001;28;20204;-60
2022/03/07 12:49:27;;;;;;;21.65;13.32;;;;;;;;;;5077574;28;20192;-60
2022/03/07 12:51:53;;;;;;;42.85;25.23;;;;;;;;;;5079470;28;20265;-60
2022/03/07 12:54:26;;;;;;;43.60;27.92;;;;;;;;;;5090953;28;20196;-60
2022/03/07 12:56:51;;;;;;;31.50;17.38;;;;;;;;;;5104287;28;20163;-60
2022/03/07 12:59:23;;;;;;;23.38;14.35;;;;;;;;;;5104866;28;20172;-60
2022/03/07 13:01:49;;;;;;;26.10;16.38;;;;;;;;;;5101359;28;20206;-60
2022/03/07 13:04:15;;;;;;;32.95;19.63;;;;;;;;;;5089441;28;20572;-60
2022/03/07 13:06:45;;;;;;;26.77;15.60;;;;;;;;;;5093860;28;20187;-60
2022/03/07 13:09:11;;;;;;;21.45;14.18;;;;;;;;;;5095202;28;20188;-60
2022/03/07 13:11:42;;;;;;;25.90;15.18;;;;;;;;;;5098269;28;20182;-60
2022/03/07 13:14:08;;;;;;;24.02;13.55;;;;;;;;;;5101658;28;20199;-60
2022/03/07 13:16:34;;;;;;;24.23;13.85;;;;;;;;;;5091996;28;20226;-60
2022/03/07 13:19:01;;;;;;;20.48;12.40;;;;;;;;;;5097742;28;20664;-60
2022/03/07 13:21:29;;;;;;;19.60;14.30;;;;;;;;;;5100308;28;20176;-60
2022/03/07 13:23:54;;;;;;;20.13;12.80;;;;;;;;;;5094937;28;20192;-61
2022/03/07 13:26:24;;;;;;;18.92;12.45;;;;;;;;;;5100089;28;20180;-60
2022/03/07 13:29:01;;;;;;;22.08;14.38;;;;;;;;;;5098105;28;20185;-60
2022/03/07 13:31:26;;;;;;;25.65;16.27;;;;;;;;;;5096630;28;20864;-60
2022/03/07 13:33:58;;;;;;;29.55;18.05;;;;;;;;;;5098796;28;20200;-61
2022/03/07 13:36:23;;;;;;;26.40;15.52;;;;;;;;;;5105795;28;20669;-61
2022/03/07 13:38:48;;;;;;;25.10;15.98;;;;;;;;;;5099076;28;20218;-61
2022/03/07 13:41:14;;;;;;;22.85;13.85;;;;;;;;;;5102432;28;20191;-60
2022/03/07 13:43:40;;;;;;;22.83;13.30;;;;;;;;;;5100643;28;20686;-60
2022/03/07 13:46:13;;;;;;;20.67;11.65;;;;;;;;;;5104710;28;21184;-60
2022/03/07 13:48:38;;;;;;;21.83;14.35;;;;;;;;;;5106683;28;20721;-60
2022/03/07 13:51:03;;;;;;;21.25;13.15;;;;;;;;;;5101207;28;20187;-61
2022/03/07 13:53:29;;;;;;;20.15;13.93;;;;;;;;;;5096216;28;20203;-61
2022/03/07 13:55:56;;;;;;;23.50;15.57;;;;;;;;;;5099167;28;20187;-61
2022/03/07 13:58:23;;;;;;;19.80;12.65;;;;;;;;;;5097120;28;20175;-61
2022/03/07 14:00:50;;;;;;;38.63;27.60;;;;;;;;;;5094359;28;20188;-61
2022/03/07 14:03:16;;;;;;;25.52;18.42;;;;;;;;;;5103525;28;20176;-61
2022/03/07 14:05:46;;;;;;;21.92;14.20;;;;;;;;;;5101158;28;20179;-61
2022/03/07 14:08:15;;;;;;;21.38;12.82;;;;;;;;;;5103632;28;20179;-61
2022/03/07 14:10:41;;;;;;;22.75;15.55;;;;;;;;;;5096056;28;20188;-60
2022/03/07 14:13:06;;;;;;;19.77;12.95;;;;;;;;;;5076383;28;21182;-61